sensor_id;sensor_type;location;lat;lon;timestamp;P1;durP1;ratioP1;P2;durP2;ratioP2
54555;SDS011;57291;37.520;15.106;2022-12-11T00:02:21;10.05;;;1.95;;
54555;SDS011;57291;37.520;15.106;2022-12-11T00:04:49;6.50;;;1.33;;
54555;SDS011;57291;37.520;15.106;2022-12-11T00:07:16;8.45;;;1.70;;
54555;SDS011;57291;37.520;15.106;2022-12-11T00:09:43;9.35;;;1.70;;
54555;SDS011;57291;37.520;15.106;2022-12-11T00:12:10;6.30;;;1.58;;
54555;SDS011;57291;37.520;15.106;2022-12-11T00:14:37;8.02;;;1.65;;
54555;SDS011;57291;37.520;15.106;2022-12-11T00:17:04;7.95;;;1.67;;
54555;SDS011;57291;37.520;15.106;2022-12-11T00:19:31;9.85;;;1.73;;
54555;SDS011;57291;37.520;15.106;2022-12-11T00:21:58;7.40;;;1.65;;
54555;SDS011;57291;37.520;15.106;2022-12-11T00:24:28;6.95;;;1.63;;
54555;SDS011;57291;37.520;15.106;2022-12-11T00:26:55;9.13;;;1.88;;
54555;SDS011;57291;37.520;15.106;2022-12-11T00:29:22;8.02;;;1.83;;
54555;SDS011;57291;37.520;15.106;2022-12-11T00:31:50;7.00;;;1.83;;
54555;SDS011;57291;37.520;15.106;2022-12-11T00:34:17;7.57;;;1.77;;
54555;SDS011;57291;37.520;15.106;2022-12-11T00:36:44;8.30;;;1.67;;
54555;SDS011;57291;37.520;15.106;2022-12-11T00:39:11;6.78;;;1.73;;
54555;SDS011;57291;37.520;15.106;2022-12-11T00:41:38;8.65;;;1.50;;
54555;SDS011;57291;37.520;15.106;2022-12-11T00:44:05;5.78;;;1.30;;
54555;SDS011;57291;37.520;15.106;2022-12-11T00:46:32;9.93;;;1.60;;
54555;SDS011;57291;37.520;15.106;2022-12-11T00:48:59;9.70;;;1.85;;
54555;SDS011;57291;37.520;15.106;2022-12-11T00:51:26;9.98;;;2.05;;
54555;SDS011;57291;37.520;15.106;2022-12-11T00:53:54;6.20;;;1.55;;
54555;SDS011;57291;37.520;15.106;2022-12-11T00:56:21;11.13;;;1.90;;
54555;SDS011;57291;37.520;15.106;2022-12-11T00:58:50;6.05;;;1.35;;
54555;SDS011;57291;37.520;15.106;2022-12-11T01:01:18;5.82;;;1.30;;
54555;SDS011;57291;37.520;15.106;2022-12-11T01:03:47;7.40;;;1.50;;
54555;SDS011;57291;37.520;15.106;2022-12-11T01:06:16;7.47;;;1.17;;
54555;SDS011;57291;37.520;15.106;2022-12-11T01:08:50;10.00;;;1.48;;
54555;SDS011;57291;37.520;15.106;2022-12-11T01:11:40;7.43;;;1.42;;
54555;SDS011;57291;37.520;15.106;2022-12-11T01:14:09;6.93;;;1.50;;
54555;SDS011;57291;37.520;15.106;2022-12-11T01:16:37;6.00;;;1.48;;
54555;SDS011;57291;37.520;15.106;2022-12-11T01:19:05;7.90;;;1.67;;
54555;SDS011;57291;37.520;15.106;2022-12-11T01:21:32;9.68;;;1.90;;
54555;SDS011;57291;37.520;15.106;2022-12-11T01:23:59;7.72;;;1.73;;
54555;SDS011;57291;37.520;15.106;2022-12-11T01:26:26;9.07;;;1.38;;
54555;SDS011;57291;37.520;15.106;2022-12-11T01:28:53;8.18;;;1.52;;
54555;SDS011;57291;37.520;15.106;2022-12-11T01:31:20;6.80;;;1.30;;
54555;SDS011;57291;37.520;15.106;2022-12-11T01:33:48;8.55;;;1.50;;
54555;SDS011;57291;37.520;15.106;2022-12-11T01:36:19;8.43;;;1.58;;
54555;SDS011;57291;37.520;15.106;2022-12-11T01:38:47;10.80;;;1.60;;
54555;SDS011;57291;37.520;15.106;2022-12-11T01:41:16;11.57;;;1.90;;
54555;SDS011;57291;37.520;15.106;2022-12-11T01:43:57;7.85;;;1.40;;
54555;SDS011;57291;37.520;15.106;2022-12-11T01:46:27;10.20;;;1.38;;
54555;SDS011;57291;37.520;15.106;2022-12-11T01:48:56;7.95;;;1.50;;
54555;SDS011;57291;37.520;15.106;2022-12-11T01:51:24;10.43;;;1.42;;
54555;SDS011;57291;37.520;15.106;2022-12-11T01:53:54;6.22;;;1.20;;
54555;SDS011;57291;37.520;15.106;2022-12-11T01:56:26;10.07;;;1.80;;
54555;SDS011;57291;37.520;15.106;2022-12-11T01:58:59;11.10;;;1.65;;
54555;SDS011;57291;37.520;15.106;2022-12-11T02:01:37;9.95;;;1.60;;
54555;SDS011;57291;37.520;15.106;2022-12-11T02:04:13;9.00;;;1.63;;
54555;SDS011;57291;37.520;15.106;2022-12-11T02:06:42;10.15;;;2.22;;
54555;SDS011;57291;37.520;15.106;2022-12-11T02:09:13;9.15;;;1.58;;
54555;SDS011;57291;37.520;15.106;2022-12-11T02:14:53;8.48;;;1.48;;
54555;SDS011;57291;37.520;15.106;2022-12-11T02:17:40;7.55;;;1.13;;
54555;SDS011;57291;37.520;15.106;2022-12-11T02:20:20;9.18;;;1.73;;
54555;SDS011;57291;37.520;15.106;2022-12-11T02:23:17;4.53;;;1.35;;
54555;SDS011;57291;37.520;15.106;2022-12-11T02:26:15;5.50;;;1.55;;
54555;SDS011;57291;37.520;15.106;2022-12-11T02:28:58;9.93;;;1.95;;
54555;SDS011;57291;37.520;15.106;2022-12-11T02:31:31;6.35;;;1.48;;
54555;SDS011;57291;37.520;15.106;2022-12-11T02:36:39;5.20;;;1.40;;
54555;SDS011;57291;37.520;15.106;2022-12-11T02:39:10;5.43;;;1.27;;
54555;SDS011;57291;37.520;15.106;2022-12-11T02:41:49;7.03;;;1.55;;
54555;SDS011;57291;37.520;15.106;2022-12-11T02:44:27;7.72;;;1.38;;
54555;SDS011;57291;37.520;15.106;2022-12-11T02:46:59;5.57;;;1.23;;
54555;SDS011;57291;37.520;15.106;2022-12-11T02:49:28;5.07;;;1.00;;
54555;SDS011;57291;37.520;15.106;2022-12-11T02:51:57;8.05;;;1.15;;
54555;SDS011;57291;37.520;15.106;2022-12-11T02:54:30;6.72;;;1.27;;
54555;SDS011;57291;37.520;15.106;2022-12-11T02:57:01;8.35;;;1.10;;
54555;SDS011;57291;37.520;15.106;2022-12-11T02:59:38;5.68;;;1.30;;
54555;SDS011;57291;37.520;15.106;2022-12-11T03:02:07;8.88;;;1.08;;
54555;SDS011;57291;37.520;15.106;2022-12-11T03:04:34;7.10;;;1.73;;
54555;SDS011;57291;37.520;15.106;2022-12-11T03:07:05;8.90;;;1.65;;
54555;SDS011;57291;37.520;15.106;2022-12-11T03:09:38;4.25;;;1.13;;
54555;SDS011;57291;37.520;15.106;2022-12-11T03:12:09;7.18;;;1.30;;
54555;SDS011;57291;37.520;15.106;2022-12-11T03:14:42;8.27;;;0.98;;
54555;SDS011;57291;37.520;15.106;2022-12-11T03:17:14;6.63;;;1.15;;
54555;SDS011;57291;37.520;15.106;2022-12-11T03:22:47;6.15;;;1.27;;
54555;SDS011;57291;37.520;15.106;2022-12-11T03:25:26;6.45;;;1.10;;
54555;SDS011;57291;37.520;15.106;2022-12-11T03:28:08;5.18;;;1.30;;
54555;SDS011;57291;37.520;15.106;2022-12-11T03:30:39;6.63;;;1.13;;
54555;SDS011;57291;37.520;15.106;2022-12-11T03:33:10;5.63;;;1.20;;
54555;SDS011;57291;37.520;15.106;2022-12-11T03:35:44;7.85;;;1.25;;
54555;SDS011;57291;37.520;15.106;2022-12-11T03:38:18;7.82;;;1.10;;
54555;SDS011;57291;37.520;15.106;2022-12-11T03:40:50;5.32;;;1.30;;
54555;SDS011;57291;37.520;15.106;2022-12-11T03:43:21;7.55;;;1.40;;
54555;SDS011;57291;37.520;15.106;2022-12-11T03:45:48;10.35;;;1.25;;
54555;SDS011;57291;37.520;15.106;2022-12-11T03:48:19;10.57;;;1.33;;
54555;SDS011;57291;37.520;15.106;2022-12-11T03:50:48;6.75;;;1.40;;
54555;SDS011;57291;37.520;15.106;2022-12-11T03:53:16;7.45;;;1.45;;
54555;SDS011;57291;37.520;15.106;2022-12-11T03:55:44;10.35;;;1.63;;
54555;SDS011;57291;37.520;15.106;2022-12-11T03:58:13;9.05;;;1.60;;
54555;SDS011;57291;37.520;15.106;2022-12-11T04:00:40;3.33;;;0.90;;
54555;SDS011;57291;37.520;15.106;2022-12-11T04:03:08;8.60;;;1.35;;
54555;SDS011;57291;37.520;15.106;2022-12-11T04:05:40;5.90;;;1.25;;
54555;SDS011;57291;37.520;15.106;2022-12-11T04:08:09;8.38;;;1.50;;
54555;SDS011;57291;37.520;15.106;2022-12-11T04:10:37;6.47;;;1.55;;
54555;SDS011;57291;37.520;15.106;2022-12-11T04:13:05;6.07;;;1.20;;
54555;SDS011;57291;37.520;15.106;2022-12-11T04:15:32;10.75;;;1.83;;
54555;SDS011;57291;37.520;15.106;2022-12-11T04:18:00;5.15;;;1.40;;
54555;SDS011;57291;37.520;15.106;2022-12-11T04:20:45;11.90;;;1.50;;
54555;SDS011;57291;37.520;15.106;2022-12-11T04:23:31;13.45;;;1.75;;
54555;SDS011;57291;37.520;15.106;2022-12-11T04:26:19;9.10;;;1.45;;
54555;SDS011;57291;37.520;15.106;2022-12-11T04:28:47;6.40;;;1.35;;
54555;SDS011;57291;37.520;15.106;2022-12-11T04:31:16;7.00;;;1.60;;
54555;SDS011;57291;37.520;15.106;2022-12-11T04:33:45;5.07;;;1.30;;
54555;SDS011;57291;37.520;15.106;2022-12-11T04:36:13;14.73;;;1.50;;
54555;SDS011;57291;37.520;15.106;2022-12-11T04:38:40;8.82;;;1.73;;
54555;SDS011;57291;37.520;15.106;2022-12-11T04:41:11;9.07;;;1.60;;
54555;SDS011;57291;37.520;15.106;2022-12-11T04:43:41;9.02;;;1.50;;
54555;SDS011;57291;37.520;15.106;2022-12-11T04:46:14;11.15;;;1.63;;
54555;SDS011;57291;37.520;15.106;2022-12-11T04:48:44;8.10;;;2.22;;
54555;SDS011;57291;37.520;15.106;2022-12-11T04:51:22;15.35;;;1.98;;
54555;SDS011;57291;37.520;15.106;2022-12-11T04:53:49;8.50;;;1.77;;
54555;SDS011;57291;37.520;15.106;2022-12-11T04:56:16;15.50;;;2.72;;
54555;SDS011;57291;37.520;15.106;2022-12-11T04:58:45;10.73;;;2.10;;
54555;SDS011;57291;37.520;15.106;2022-12-11T05:01:14;11.40;;;1.70;;
54555;SDS011;57291;37.520;15.106;2022-12-11T05:03:44;8.18;;;1.52;;
54555;SDS011;57291;37.520;15.106;2022-12-11T05:06:12;14.02;;;2.85;;
54555;SDS011;57291;37.520;15.106;2022-12-11T05:08:40;8.77;;;1.80;;
54555;SDS011;57291;37.520;15.106;2022-12-11T05:11:09;5.90;;;1.45;;
54555;SDS011;57291;37.520;15.106;2022-12-11T05:13:37;9.50;;;2.10;;
54555;SDS011;57291;37.520;15.106;2022-12-11T05:16:06;9.70;;;2.28;;
54555;SDS011;57291;37.520;15.106;2022-12-11T05:18:36;12.23;;;2.13;;
54555;SDS011;57291;37.520;15.106;2022-12-11T05:21:05;7.65;;;1.90;;
54555;SDS011;57291;37.520;15.106;2022-12-11T05:23:34;11.52;;;2.15;;
54555;SDS011;57291;37.520;15.106;2022-12-11T05:26:05;11.45;;;2.17;;
54555;SDS011;57291;37.520;15.106;2022-12-11T05:28:36;7.78;;;1.52;;
54555;SDS011;57291;37.520;15.106;2022-12-11T05:31:06;11.40;;;2.10;;
54555;SDS011;57291;37.520;15.106;2022-12-11T05:33:37;4.90;;;1.60;;
54555;SDS011;57291;37.520;15.106;2022-12-11T05:36:05;9.65;;;2.08;;
54555;SDS011;57291;37.520;15.106;2022-12-11T05:38:33;12.90;;;2.88;;
54555;SDS011;57291;37.520;15.106;2022-12-11T05:41:01;16.00;;;2.75;;
54555;SDS011;57291;37.520;15.106;2022-12-11T05:43:34;11.70;;;2.75;;
54555;SDS011;57291;37.520;15.106;2022-12-11T05:48:40;12.68;;;2.20;;
54555;SDS011;57291;37.520;15.106;2022-12-11T05:51:08;13.75;;;2.10;;
54555;SDS011;57291;37.520;15.106;2022-12-11T05:53:36;8.68;;;1.63;;
54555;SDS011;57291;37.520;15.106;2022-12-11T05:56:06;12.95;;;2.42;;
54555;SDS011;57291;37.520;15.106;2022-12-11T05:58:36;10.98;;;2.17;;
54555;SDS011;57291;37.520;15.106;2022-12-11T06:01:07;14.48;;;2.28;;
54555;SDS011;57291;37.520;15.106;2022-12-11T06:03:52;11.43;;;1.90;;
54555;SDS011;57291;37.520;15.106;2022-12-11T06:06:55;14.93;;;2.20;;
54555;SDS011;57291;37.520;15.106;2022-12-11T06:09:22;10.30;;;1.63;;
54555;SDS011;57291;37.520;15.106;2022-12-11T06:11:49;12.43;;;2.00;;
54555;SDS011;57291;37.520;15.106;2022-12-11T06:14:16;9.35;;;2.03;;
54555;SDS011;57291;37.520;15.106;2022-12-11T06:16:43;12.95;;;2.25;;
54555;SDS011;57291;37.520;15.106;2022-12-11T06:19:14;6.30;;;1.63;;
54555;SDS011;57291;37.520;15.106;2022-12-11T06:21:44;13.23;;;2.03;;
54555;SDS011;57291;37.520;15.106;2022-12-11T06:24:15;8.68;;;2.28;;
54555;SDS011;57291;37.520;15.106;2022-12-11T06:26:42;13.05;;;2.10;;
54555;SDS011;57291;37.520;15.106;2022-12-11T06:29:09;12.18;;;2.80;;
54555;SDS011;57291;37.520;15.106;2022-12-11T06:31:38;13.70;;;2.15;;
54555;SDS011;57291;37.520;15.106;2022-12-11T06:34:06;6.93;;;1.90;;
54555;SDS011;57291;37.520;15.106;2022-12-11T06:36:33;15.63;;;2.60;;
54555;SDS011;57291;37.520;15.106;2022-12-11T06:39:00;14.13;;;2.20;;
54555;SDS011;57291;37.520;15.106;2022-12-11T06:41:27;9.93;;;2.55;;
54555;SDS011;57291;37.520;15.106;2022-12-11T06:43:54;6.75;;;2.28;;
54555;SDS011;57291;37.520;15.106;2022-12-11T06:46:21;11.50;;;2.45;;
54555;SDS011;57291;37.520;15.106;2022-12-11T06:48:48;16.95;;;2.53;;
54555;SDS011;57291;37.520;15.106;2022-12-11T06:51:20;18.95;;;2.55;;
54555;SDS011;57291;37.520;15.106;2022-12-11T06:53:52;13.65;;;2.58;;
54555;SDS011;57291;37.520;15.106;2022-12-11T06:56:21;12.83;;;2.50;;
54555;SDS011;57291;37.520;15.106;2022-12-11T06:58:50;9.10;;;2.47;;
54555;SDS011;57291;37.520;15.106;2022-12-11T07:01:22;10.00;;;2.65;;
54555;SDS011;57291;37.520;15.106;2022-12-11T07:03:54;15.23;;;2.67;;
54555;SDS011;57291;37.520;15.106;2022-12-11T07:06:23;12.20;;;2.45;;
54555;SDS011;57291;37.520;15.106;2022-12-11T07:08:51;12.30;;;2.40;;
54555;SDS011;57291;37.520;15.106;2022-12-11T07:11:19;8.13;;;2.60;;
54555;SDS011;57291;37.520;15.106;2022-12-11T07:13:46;12.38;;;2.80;;
54555;SDS011;57291;37.520;15.106;2022-12-11T07:16:15;14.43;;;2.80;;
54555;SDS011;57291;37.520;15.106;2022-12-11T07:18:45;11.90;;;2.58;;
54555;SDS011;57291;37.520;15.106;2022-12-11T07:21:14;14.43;;;3.33;;
54555;SDS011;57291;37.520;15.106;2022-12-11T07:23:41;16.15;;;3.33;;
54555;SDS011;57291;37.520;15.106;2022-12-11T07:26:13;14.77;;;3.22;;
54555;SDS011;57291;37.520;15.106;2022-12-11T07:28:42;10.50;;;3.05;;
54555;SDS011;57291;37.520;15.106;2022-12-11T07:31:13;9.90;;;3.22;;
54555;SDS011;57291;37.520;15.106;2022-12-11T07:33:42;15.98;;;3.90;;
54555;SDS011;57291;37.520;15.106;2022-12-11T07:36:10;13.20;;;3.58;;
54555;SDS011;57291;37.520;15.106;2022-12-11T07:38:38;15.18;;;3.90;;
54555;SDS011;57291;37.520;15.106;2022-12-11T07:41:07;15.43;;;3.70;;
54555;SDS011;57291;37.520;15.106;2022-12-11T07:43:36;16.23;;;3.22;;
54555;SDS011;57291;37.520;15.106;2022-12-11T07:46:05;16.65;;;4.53;;
54555;SDS011;57291;37.520;15.106;2022-12-11T07:48:37;19.27;;;3.97;;
54555;SDS011;57291;37.520;15.106;2022-12-11T07:51:16;20.95;;;3.60;;
54555;SDS011;57291;37.520;15.106;2022-12-11T07:53:48;14.18;;;3.05;;
54555;SDS011;57291;37.520;15.106;2022-12-11T07:56:16;15.88;;;2.95;;
54555;SDS011;57291;37.520;15.106;2022-12-11T07:58:44;12.15;;;2.75;;
54555;SDS011;57291;37.520;15.106;2022-12-11T08:01:14;14.40;;;3.42;;
54555;SDS011;57291;37.520;15.106;2022-12-11T08:03:43;11.27;;;3.03;;
54555;SDS011;57291;37.520;15.106;2022-12-11T08:06:11;12.30;;;2.40;;
54555;SDS011;57291;37.520;15.106;2022-12-11T08:08:38;11.43;;;2.63;;
54555;SDS011;57291;37.520;15.106;2022-12-11T08:11:08;15.13;;;3.08;;
54555;SDS011;57291;37.520;15.106;2022-12-11T08:13:37;12.82;;;3.00;;
54555;SDS011;57291;37.520;15.106;2022-12-11T08:16:06;15.32;;;3.80;;
54555;SDS011;57291;37.520;15.106;2022-12-11T08:18:35;13.88;;;3.80;;
54555;SDS011;57291;37.520;15.106;2022-12-11T08:21:04;13.38;;;3.05;;
54555;SDS011;57291;37.520;15.106;2022-12-11T08:23:32;12.02;;;3.13;;
54555;SDS011;57291;37.520;15.106;2022-12-11T08:26:07;12.63;;;3.20;;
54555;SDS011;57291;37.520;15.106;2022-12-11T08:28:36;10.95;;;3.60;;
54555;SDS011;57291;37.520;15.106;2022-12-11T08:31:04;16.08;;;4.03;;
54555;SDS011;57291;37.520;15.106;2022-12-11T08:33:34;10.63;;;3.42;;
54555;SDS011;57291;37.520;15.106;2022-12-11T08:36:03;17.60;;;3.60;;
54555;SDS011;57291;37.520;15.106;2022-12-11T08:38:35;14.18;;;3.67;;
54555;SDS011;57291;37.520;15.106;2022-12-11T08:41:07;14.32;;;3.70;;
54555;SDS011;57291;37.520;15.106;2022-12-11T08:43:38;16.25;;;5.30;;
54555;SDS011;57291;37.520;15.106;2022-12-11T08:46:06;25.55;;;9.65;;
54555;SDS011;57291;37.520;15.106;2022-12-11T08:48:34;16.42;;;4.18;;
54555;SDS011;57291;37.520;15.106;2022-12-11T08:51:05;13.15;;;3.45;;
54555;SDS011;57291;37.520;15.106;2022-12-11T08:53:34;14.60;;;3.95;;
54555;SDS011;57291;37.520;15.106;2022-12-11T08:56:04;14.45;;;3.63;;
54555;SDS011;57291;37.520;15.106;2022-12-11T08:58:33;10.87;;;2.83;;
54555;SDS011;57291;37.520;15.106;2022-12-11T09:01:08;18.73;;;3.83;;
54555;SDS011;57291;37.520;15.106;2022-12-11T09:03:38;22.33;;;3.75;;
54555;SDS011;57291;37.520;15.106;2022-12-11T09:06:06;9.30;;;3.00;;
54555;SDS011;57291;37.520;15.106;2022-12-11T09:08:35;9.27;;;2.30;;
54555;SDS011;57291;37.520;15.106;2022-12-11T09:11:03;14.10;;;2.85;;
54555;SDS011;57291;37.520;15.106;2022-12-11T09:13:32;9.93;;;2.72;;
54555;SDS011;57291;37.520;15.106;2022-12-11T09:16:01;17.35;;;3.22;;
54555;SDS011;57291;37.520;15.106;2022-12-11T09:18:30;15.10;;;3.97;;
54555;SDS011;57291;37.520;15.106;2022-12-11T09:20:58;12.90;;;3.03;;
54555;SDS011;57291;37.520;15.106;2022-12-11T09:23:29;12.23;;;3.10;;
54555;SDS011;57291;37.520;15.106;2022-12-11T09:25:57;11.80;;;3.50;;
54555;SDS011;57291;37.520;15.106;2022-12-11T09:28:24;11.32;;;2.95;;
54555;SDS011;57291;37.520;15.106;2022-12-11T09:30:51;16.52;;;3.20;;
54555;SDS011;57291;37.520;15.106;2022-12-11T09:33:19;16.13;;;3.30;;
54555;SDS011;57291;37.520;15.106;2022-12-11T09:35:55;8.57;;;3.25;;
54555;SDS011;57291;37.520;15.106;2022-12-11T09:38:23;11.73;;;2.88;;
54555;SDS011;57291;37.520;15.106;2022-12-11T09:40:50;13.52;;;3.60;;
54555;SDS011;57291;37.520;15.106;2022-12-11T09:43:37;12.25;;;3.40;;
54555;SDS011;57291;37.520;15.106;2022-12-11T09:46:15;8.68;;;3.20;;
54555;SDS011;57291;37.520;15.106;2022-12-11T09:48:44;13.68;;;4.30;;
54555;SDS011;57291;37.520;15.106;2022-12-11T09:53:52;11.98;;;3.00;;
54555;SDS011;57291;37.520;15.106;2022-12-11T09:56:26;9.80;;;3.08;;
54555;SDS011;57291;37.520;15.106;2022-12-11T10:09:51;7.95;;;2.30;;
54555;SDS011;57291;37.520;15.106;2022-12-11T10:15:53;8.13;;;2.88;;
54555;SDS011;57291;37.520;15.106;2022-12-11T10:18:29;10.95;;;2.53;;
54555;SDS011;57291;37.520;15.106;2022-12-11T10:20:59;10.85;;;2.88;;
54555;SDS011;57291;37.520;15.106;2022-12-11T10:23:29;14.27;;;3.05;;
54555;SDS011;57291;37.520;15.106;2022-12-11T10:26:06;10.25;;;2.30;;
54555;SDS011;57291;37.520;15.106;2022-12-11T10:28:38;7.43;;;1.63;;
54555;SDS011;57291;37.520;15.106;2022-12-11T10:36:27;9.90;;;2.47;;
54555;SDS011;57291;37.520;15.106;2022-12-11T10:38:57;12.30;;;2.35;;
54555;SDS011;57291;37.520;15.106;2022-12-11T10:41:37;10.07;;;2.13;;
54555;SDS011;57291;37.520;15.106;2022-12-11T10:46:48;10.68;;;2.47;;
54555;SDS011;57291;37.520;15.106;2022-12-11T10:49:34;6.00;;;2.05;;
54555;SDS011;57291;37.520;15.106;2022-12-11T10:52:19;9.07;;;2.30;;
54555;SDS011;57291;37.520;15.106;2022-12-11T10:55:06;8.10;;;2.00;;
54555;SDS011;57291;37.520;15.106;2022-12-11T10:57:36;6.70;;;2.03;;
54555;SDS011;57291;37.520;15.106;2022-12-11T11:00:05;6.20;;;1.88;;
54555;SDS011;57291;37.520;15.106;2022-12-11T11:02:35;7.82;;;1.90;;
54555;SDS011;57291;37.520;15.106;2022-12-11T11:05:26;9.25;;;2.25;;
54555;SDS011;57291;37.520;15.106;2022-12-11T11:11:15;7.65;;;2.30;;
54555;SDS011;57291;37.520;15.106;2022-12-11T11:13:45;8.43;;;2.40;;
54555;SDS011;57291;37.520;15.106;2022-12-11T11:16:13;6.68;;;2.83;;
54555;SDS011;57291;37.520;15.106;2022-12-11T11:18:48;8.07;;;2.17;;
54555;SDS011;57291;37.520;15.106;2022-12-11T11:21:19;6.45;;;2.10;;
54555;SDS011;57291;37.520;15.106;2022-12-11T11:23:50;7.53;;;2.33;;
54555;SDS011;57291;37.520;15.106;2022-12-11T11:26:19;6.93;;;2.28;;
54555;SDS011;57291;37.520;15.106;2022-12-11T11:29:16;8.07;;;2.08;;
54555;SDS011;57291;37.520;15.106;2022-12-11T11:31:53;5.73;;;1.70;;
54555;SDS011;57291;37.520;15.106;2022-12-11T11:34:20;13.40;;;2.15;;
54555;SDS011;57291;37.520;15.106;2022-12-11T11:36:54;5.85;;;1.30;;
54555;SDS011;57291;37.520;15.106;2022-12-11T11:39:28;4.22;;;1.63;;
54555;SDS011;57291;37.520;15.106;2022-12-11T11:45:21;6.95;;;1.70;;
54555;SDS011;57291;37.520;15.106;2022-12-11T11:50:50;5.40;;;2.10;;
54555;SDS011;57291;37.520;15.106;2022-12-11T11:53:30;7.80;;;2.00;;
54555;SDS011;57291;37.520;15.106;2022-12-11T12:01:32;5.18;;;1.60;;
54555;SDS011;57291;37.520;15.106;2022-12-11T12:04:00;4.63;;;1.80;;
54555;SDS011;57291;37.520;15.106;2022-12-11T12:09:37;4.97;;;1.70;;
54555;SDS011;57291;37.520;15.106;2022-12-11T12:17:52;5.07;;;1.38;;
54555;SDS011;57291;37.520;15.106;2022-12-11T12:29:19;3.33;;;1.30;;
54555;SDS011;57291;37.520;15.106;2022-12-11T12:42:44;4.45;;;1.27;;
54555;SDS011;57291;37.520;15.106;2022-12-11T12:45:25;7.97;;;1.52;;
54555;SDS011;57291;37.520;15.106;2022-12-11T12:48:00;5.93;;;1.63;;
54555;SDS011;57291;37.520;15.106;2022-12-11T12:50:32;6.20;;;1.20;;
54555;SDS011;57291;37.520;15.106;2022-12-11T12:53:04;5.68;;;1.48;;
54555;SDS011;57291;37.520;15.106;2022-12-11T12:55:33;6.70;;;1.50;;
54555;SDS011;57291;37.520;15.106;2022-12-11T12:58:02;4.03;;;1.40;;
54555;SDS011;57291;37.520;15.106;2022-12-11T13:00:41;5.00;;;1.50;;
54555;SDS011;57291;37.520;15.106;2022-12-11T13:05:59;4.50;;;1.38;;
54555;SDS011;57291;37.520;15.106;2022-12-11T13:08:28;7.45;;;1.27;;
54555;SDS011;57291;37.520;15.106;2022-12-11T13:11:07;6.88;;;1.63;;
54555;SDS011;57291;37.520;15.106;2022-12-11T13:13:38;7.13;;;1.58;;
54555;SDS011;57291;37.520;15.106;2022-12-11T13:18:44;5.47;;;1.60;;
54555;SDS011;57291;37.520;15.106;2022-12-11T13:21:33;4.32;;;1.50;;
54555;SDS011;57291;37.520;15.106;2022-12-11T13:26:40;6.25;;;1.35;;
54555;SDS011;57291;37.520;15.106;2022-12-11T13:32:21;3.03;;;1.10;;
54555;SDS011;57291;37.520;15.106;2022-12-11T13:34:53;5.32;;;1.60;;
54555;SDS011;57291;37.520;15.106;2022-12-11T13:37:28;5.57;;;1.50;;
54555;SDS011;57291;37.520;15.106;2022-12-11T13:40:04;5.30;;;1.00;;
54555;SDS011;57291;37.520;15.106;2022-12-11T13:42:39;4.78;;;1.50;;
54555;SDS011;57291;37.520;15.106;2022-12-11T13:45:19;4.43;;;1.83;;
54555;SDS011;57291;37.520;15.106;2022-12-11T13:47:49;5.38;;;1.10;;
54555;SDS011;57291;37.520;15.106;2022-12-11T13:50:19;6.22;;;1.20;;
54555;SDS011;57291;37.520;15.106;2022-12-11T13:52:53;4.45;;;1.55;;
54555;SDS011;57291;37.520;15.106;2022-12-11T13:55:26;3.42;;;1.10;;
54555;SDS011;57291;37.520;15.106;2022-12-11T13:57:55;4.80;;;1.05;;
54555;SDS011;57291;37.520;15.106;2022-12-11T14:00:24;2.30;;;1.00;;
54555;SDS011;57291;37.520;15.106;2022-12-11T14:02:53;4.03;;;1.60;;
54555;SDS011;57291;37.520;15.106;2022-12-11T14:05:24;4.90;;;1.48;;
54555;SDS011;57291;37.520;15.106;2022-12-11T14:07:55;3.53;;;1.10;;
54555;SDS011;57291;37.520;15.106;2022-12-11T14:10:25;3.67;;;1.25;;
54555;SDS011;57291;37.520;15.106;2022-12-11T14:12:56;2.95;;;0.98;;
54555;SDS011;57291;37.520;15.106;2022-12-11T14:15:28;5.22;;;1.35;;
54555;SDS011;57291;37.520;15.106;2022-12-11T14:17:57;5.50;;;1.60;;
54555;SDS011;57291;37.520;15.106;2022-12-11T14:20:30;4.07;;;1.30;;
54555;SDS011;57291;37.520;15.106;2022-12-11T14:25:33;4.10;;;1.30;;
54555;SDS011;57291;37.520;15.106;2022-12-11T14:28:00;5.88;;;1.25;;
54555;SDS011;57291;37.520;15.106;2022-12-11T14:30:28;5.55;;;1.20;;
54555;SDS011;57291;37.520;15.106;2022-12-11T14:33:00;2.70;;;1.00;;
54555;SDS011;57291;37.520;15.106;2022-12-11T14:35:35;6.57;;;1.15;;
54555;SDS011;57291;37.520;15.106;2022-12-11T14:38:27;2.88;;;1.20;;
54555;SDS011;57291;37.520;15.106;2022-12-11T14:41:01;6.10;;;0.90;;
54555;SDS011;57291;37.520;15.106;2022-12-11T14:43:35;5.10;;;1.17;;
54555;SDS011;57291;37.520;15.106;2022-12-11T14:46:09;7.13;;;1.10;;
54555;SDS011;57291;37.520;15.106;2022-12-11T14:48:47;4.95;;;1.35;;
54555;SDS011;57291;37.520;15.106;2022-12-11T14:51:41;5.05;;;1.40;;
54555;SDS011;57291;37.520;15.106;2022-12-11T14:54:15;6.75;;;1.30;;
54555;SDS011;57291;37.520;15.106;2022-12-11T14:56:49;5.80;;;1.60;;
54555;SDS011;57291;37.520;15.106;2022-12-11T14:59:18;5.32;;;1.85;;
54555;SDS011;57291;37.520;15.106;2022-12-11T15:01:56;4.38;;;1.42;;
54555;SDS011;57291;37.520;15.106;2022-12-11T15:04:29;3.63;;;1.35;;
54555;SDS011;57291;37.520;15.106;2022-12-11T15:06:58;6.65;;;2.47;;
54555;SDS011;57291;37.520;15.106;2022-12-11T15:12:06;4.47;;;1.48;;
54555;SDS011;57291;37.520;15.106;2022-12-11T15:14:38;4.97;;;1.52;;
54555;SDS011;57291;37.520;15.106;2022-12-11T15:17:17;3.65;;;1.30;;
54555;SDS011;57291;37.520;15.106;2022-12-11T15:19:53;4.57;;;1.20;;
54555;SDS011;57291;37.520;15.106;2022-12-11T15:22:28;7.90;;;1.20;;
54555;SDS011;57291;37.520;15.106;2022-12-11T15:24:57;5.15;;;1.52;;
54555;SDS011;57291;37.520;15.106;2022-12-11T15:27:35;5.85;;;1.35;;
54555;SDS011;57291;37.520;15.106;2022-12-11T15:32:43;4.40;;;1.35;;
54555;SDS011;57291;37.520;15.106;2022-12-11T15:35:21;4.65;;;1.42;;
54555;SDS011;57291;37.520;15.106;2022-12-11T15:37:53;3.78;;;1.27;;
54555;SDS011;57291;37.520;15.106;2022-12-11T15:40:21;2.72;;;1.17;;
54555;SDS011;57291;37.520;15.106;2022-12-11T15:42:49;6.50;;;1.50;;
54555;SDS011;57291;37.520;15.106;2022-12-11T15:45:18;4.78;;;1.75;;
54555;SDS011;57291;37.520;15.106;2022-12-11T15:47:47;4.90;;;1.75;;
54555;SDS011;57291;37.520;15.106;2022-12-11T15:50:16;6.20;;;1.67;;
54555;SDS011;57291;37.520;15.106;2022-12-11T15:52:47;5.13;;;1.10;;
54555;SDS011;57291;37.520;15.106;2022-12-11T15:55:16;4.68;;;1.40;;
54555;SDS011;57291;37.520;15.106;2022-12-11T15:57:44;5.68;;;1.40;;
54555;SDS011;57291;37.520;15.106;2022-12-11T16:00:15;5.35;;;1.42;;
54555;SDS011;57291;37.520;15.106;2022-12-11T16:02:46;5.00;;;1.42;;
54555;SDS011;57291;37.520;15.106;2022-12-11T16:05:14;8.30;;;1.65;;
54555;SDS011;57291;37.520;15.106;2022-12-11T16:07:41;3.58;;;1.58;;
54555;SDS011;57291;37.520;15.106;2022-12-11T16:10:12;7.13;;;2.55;;
54555;SDS011;57291;37.520;15.106;2022-12-11T16:12:43;11.85;;;4.93;;
54555;SDS011;57291;37.520;15.106;2022-12-11T16:15:11;13.65;;;7.57;;
54555;SDS011;57291;37.520;15.106;2022-12-11T16:17:48;16.58;;;7.15;;
54555;SDS011;57291;37.520;15.106;2022-12-11T16:20:16;17.98;;;7.25;;
54555;SDS011;57291;37.520;15.106;2022-12-11T16:22:43;14.30;;;5.65;;
54555;SDS011;57291;37.520;15.106;2022-12-11T16:25:10;13.75;;;3.58;;
54555;SDS011;57291;37.520;15.106;2022-12-11T16:27:37;14.45;;;3.50;;
54555;SDS011;57291;37.520;15.106;2022-12-11T16:30:05;10.40;;;3.35;;
54555;SDS011;57291;37.520;15.106;2022-12-11T16:32:36;13.48;;;4.47;;
54555;SDS011;57291;37.520;15.106;2022-12-11T16:35:03;13.70;;;4.22;;